createdAt,value
2022-10-23T00:01:43.437Z,6.40
2022-10-23T00:04:14.755Z,6.50
2022-10-23T00:06:43.365Z,6.97
2022-10-23T00:09:13.432Z,7.00
2022-10-23T00:11:42.288Z,6.95
2022-10-23T00:14:09.592Z,7.53
2022-10-23T00:16:38.118Z,7.13
2022-10-23T00:19:07.921Z,7.32
2022-10-23T00:21:37.408Z,7.43
2022-10-23T00:24:05.725Z,9.73
2022-10-23T00:26:33.197Z,7.35
2022-10-23T00:29:00.579Z,7.40
2022-10-23T00:31:27.755Z,7.30
2022-10-23T00:33:54.979Z,6.72
2022-10-23T00:36:22.515Z,6.95
2022-10-23T00:38:51.090Z,6.85
2022-10-23T00:41:24.751Z,6.97
2022-10-23T00:44:32.525Z,6.80
2022-10-23T00:47:00.716Z,7.47
2022-10-23T00:49:32.500Z,7.40
2022-10-23T00:52:07.481Z,7.00
2022-10-23T00:54:39.383Z,7.07
2022-10-23T00:57:11.393Z,6.28
2022-10-23T00:59:39.565Z,6.45
2022-10-23T01:02:07.172Z,6.28
2022-10-23T01:04:35.158Z,6.38
2022-10-23T01:07:02.296Z,5.88
2022-10-23T01:09:43.975Z,7.15
2022-10-23T01:12:50.121Z,5.90
2022-10-23T01:16:07.663Z,5.82
2022-10-23T01:19:03.283Z,6.00
2022-10-23T01:21:44.145Z,5.90
2022-10-23T01:24:30.123Z,5.97
2022-10-23T01:27:24.869Z,6.28
2022-10-23T01:30:07.199Z,6.37
2022-10-23T01:32:44.145Z,6.25
2022-10-23T01:35:18.999Z,6.10
2022-10-23T01:37:58.295Z,6.60
2022-10-23T01:40:39.575Z,6.25
2022-10-23T01:43:41.208Z,5.95
2022-10-23T01:46:14.456Z,5.63
2022-10-23T01:48:46.758Z,6.15
2022-10-23T01:51:16.999Z,6.68
2022-10-23T01:53:48.938Z,6.72
2022-10-23T01:56:23.213Z,7.10
2022-10-23T01:58:55.578Z,6.75
2022-10-23T02:01:29.075Z,6.20
2022-10-23T02:06:27.276Z,7.20
2022-10-23T02:08:54.705Z,6.10
2022-10-23T02:11:22.540Z,9.00
2022-10-23T02:13:56.054Z,7.25
2022-10-23T02:16:32.344Z,7.68
2022-10-23T02:19:14.285Z,7.00
2022-10-23T02:21:54.448Z,7.40
2022-10-23T02:24:51.448Z,6.53
2022-10-23T02:27:35.887Z,6.32
2022-10-23T02:30:09.532Z,7.57
2022-10-23T02:32:40.793Z,7.03
2022-10-23T02:35:09.192Z,6.95
2022-10-23T02:37:37.532Z,7.45
2022-10-23T02:40:07.475Z,7.25
2022-10-23T02:43:17.052Z,6.85
2022-10-23T02:46:17.311Z,6.50
2022-10-23T02:49:14.399Z,7.10
2022-10-23T02:52:13.130Z,6.85
2022-10-23T02:54:40.607Z,6.60
2022-10-23T02:58:04.679Z,7.25
2022-10-23T03:00:35.546Z,6.95
2022-10-23T03:03:11.616Z,8.40
2022-10-23T03:05:42.099Z,8.75
2022-10-23T03:08:10.796Z,7.38
2022-10-23T03:10:38.355Z,8.70
2022-10-23T03:13:07.470Z,8.75
2022-10-23T03:15:40.850Z,8.97
2022-10-23T03:18:12.466Z,8.40
2022-10-23T03:20:41.688Z,8.05
2022-10-23T03:23:13.117Z,6.82
2022-10-23T03:25:40.400Z,8.10
2022-10-23T03:28:08.434Z,8.32
2022-10-23T03:30:37.108Z,8.15
2022-10-23T03:33:04.479Z,8.73
2022-10-23T03:35:35.728Z,8.00
2022-10-23T03:38:04.130Z,8.82
2022-10-23T03:40:31.490Z,7.72
2022-10-23T03:42:59.504Z,7.45
2022-10-23T03:45:27.205Z,7.03
2022-10-23T03:47:54.559Z,7.00
2022-10-23T03:50:22.074Z,6.45
2022-10-23T03:52:49.565Z,8.23
2022-10-23T03:55:16.953Z,7.70
2022-10-23T03:57:44.213Z,8.30
2022-10-23T04:00:12.022Z,7.40
2022-10-23T04:02:47.967Z,8.65
2022-10-23T04:05:16.507Z,8.63
2022-10-23T04:07:53.833Z,8.95
2022-10-23T04:10:21.223Z,8.07
2022-10-23T04:12:48.981Z,9.07
2022-10-23T04:15:17.807Z,8.15
2022-10-23T04:17:48.961Z,9.52
2022-10-23T04:20:16.487Z,9.25
2022-10-23T04:22:44.107Z,9.02
2022-10-23T04:25:13.356Z,8.90
2022-10-23T04:27:41.204Z,7.90
2022-10-23T04:30:09.620Z,8.32
2022-10-23T04:32:38.724Z,7.45
2022-10-23T04:35:06.820Z,7.40
2022-10-23T04:37:35.480Z,8.07
2022-10-23T04:40:04.461Z,6.30
2022-10-23T04:42:37.057Z,8.82
2022-10-23T04:45:06.305Z,7.07
2022-10-23T04:47:34.496Z,6.65
2022-10-23T04:50:04.023Z,8.85
2022-10-23T04:52:56.370Z,9.07
2022-10-23T04:55:59.053Z,6.47
2022-10-23T04:58:36.488Z,8.63
2022-10-23T05:01:04.179Z,8.18
2022-10-23T05:03:32.024Z,6.85
2022-10-23T05:06:00.041Z,8.57
2022-10-23T05:08:30.969Z,8.65
2022-10-23T05:11:13.254Z,6.93
2022-10-23T05:13:45.209Z,6.57
2022-10-23T05:16:28.732Z,6.38
2022-10-23T05:18:56.866Z,6.78
2022-10-23T05:21:29.573Z,6.97
2022-10-23T05:24:01.207Z,8.40
2022-10-23T05:26:31.301Z,7.00
2022-10-23T05:29:03.059Z,8.20
2022-10-23T05:31:30.576Z,6.88
2022-10-23T05:34:06.823Z,7.10
2022-10-23T05:36:36.564Z,7.78
2022-10-23T05:39:05.244Z,7.72
2022-10-23T05:41:32.825Z,7.22
2022-10-23T05:43:59.999Z,6.20
2022-10-23T05:46:45.862Z,6.32
2022-10-23T05:49:20.119Z,5.70
2022-10-23T05:52:14.316Z,5.53
2022-10-23T05:55:02.270Z,6.30
2022-10-23T05:58:05.383Z,6.05
2022-10-23T06:00:55.939Z,6.88
2022-10-23T06:03:52.652Z,5.70
2022-10-23T06:06:23.714Z,7.40
2022-10-23T06:08:51.052Z,7.50
2022-10-23T06:11:21.089Z,8.18
2022-10-23T06:14:01.369Z,8.32
2022-10-23T06:16:28.836Z,8.35
2022-10-23T06:18:57.784Z,8.20
2022-10-23T06:21:25.345Z,7.32
2022-10-23T06:23:53.476Z,7.13
2022-10-23T06:26:46.774Z,8.48
2022-10-23T06:29:21.355Z,7.63
2022-10-23T06:31:50.221Z,8.23
2022-10-23T06:34:18.001Z,7.80
2022-10-23T06:36:46.627Z,7.93
2022-10-23T06:39:36.202Z,7.07
2022-10-23T06:42:22.523Z,7.20
2022-10-23T06:44:56.242Z,7.50
2022-10-23T06:47:42.348Z,7.97
2022-10-23T06:50:32.906Z,7.95
2022-10-23T06:53:06.676Z,8.35
2022-10-23T06:55:40.084Z,7.85
2022-10-23T06:58:11.013Z,8.00
2022-10-23T07:00:53.936Z,8.52
2022-10-23T07:03:22.076Z,7.55
2022-10-23T07:05:49.763Z,7.68
2022-10-23T07:08:17.149Z,8.50
2022-10-23T07:10:48.169Z,6.80
2022-10-23T07:13:19.616Z,7.78
2022-10-23T07:16:21.752Z,7.88
2022-10-23T07:18:58.898Z,6.85
2022-10-23T07:21:32.240Z,6.22
2022-10-23T07:24:16.639Z,7.82
2022-10-23T07:26:45.091Z,6.93
2022-10-23T07:29:15.316Z,7.80
2022-10-23T07:31:44.095Z,7.05
2022-10-23T07:34:37.691Z,7.30
2022-10-23T07:37:22.103Z,7.37
2022-10-23T07:39:49.657Z,7.63
2022-10-23T07:42:17.085Z,6.32
2022-10-23T07:44:44.593Z,5.97
2022-10-23T07:47:12.630Z,6.25
2022-10-23T07:49:43.867Z,6.93
2022-10-23T07:52:11.097Z,6.20
2022-10-23T07:54:58.393Z,6.47
2022-10-23T07:57:30.404Z,5.90
2022-10-23T08:00:18.155Z,4.90
2022-10-23T08:02:55.377Z,4.57
2022-10-23T08:05:24.026Z,4.20
2022-10-23T08:07:59.457Z,4.50
2022-10-23T08:10:26.853Z,3.95
2022-10-23T08:12:54.301Z,3.60
2022-10-23T08:15:32.023Z,3.08
2022-10-23T08:18:05.891Z,2.40
2022-10-23T08:20:46.611Z,2.67
2022-10-23T08:23:17.155Z,2.63
2022-10-23T08:25:45.837Z,2.30
2022-10-23T08:28:17.395Z,2.95
2022-10-23T08:30:54.641Z,3.28
2022-10-23T08:33:22.662Z,2.50
2022-10-23T08:35:50.392Z,2.33
2022-10-23T08:38:25.353Z,2.78
2022-10-23T08:40:54.121Z,2.78
2022-10-23T08:43:49.010Z,2.70
2022-10-23T08:46:40.767Z,3.08
2022-10-23T08:49:32.710Z,2.70
2022-10-23T08:52:22.392Z,2.30
2022-10-23T08:54:57.652Z,2.20
2022-10-23T08:57:33.495Z,2.25
2022-10-23T09:00:06.988Z,2.03
2022-10-23T09:02:41.651Z,2.50
2022-10-23T09:05:20.498Z,2.25
2022-10-23T09:08:09.297Z,2.20
2022-10-23T09:10:58.191Z,2.42
2022-10-23T09:13:48.579Z,2.40
2022-10-23T09:17:02.102Z,2.45
2022-10-23T09:19:31.472Z,2.58
2022-10-23T09:21:59.769Z,2.38
2022-10-23T09:24:31.914Z,2.45
2022-10-23T09:27:00.838Z,2.78
2022-10-23T09:29:29.270Z,2.67
2022-10-23T09:31:59.344Z,2.45
2022-10-23T09:34:29.884Z,2.40
2022-10-23T09:37:00.219Z,2.17
2022-10-23T09:39:33.286Z,2.40
2022-10-23T09:42:02.744Z,2.72
2022-10-23T09:44:32.742Z,2.95
2022-10-23T09:47:06.267Z,2.60
2022-10-23T09:49:35.006Z,2.67
2022-10-23T09:52:08.367Z,2.45
2022-10-23T09:55:04.409Z,2.97
2022-10-23T09:57:43.151Z,3.28
2022-10-23T10:00:23.729Z,3.00
2022-10-23T10:03:02.931Z,3.10
2022-10-23T10:05:45.053Z,3.08
2022-10-23T10:08:29.057Z,2.60
2022-10-23T10:11:20.838Z,3.05
2022-10-23T10:14:12.959Z,2.47
2022-10-23T10:16:59.045Z,3.10
2022-10-23T10:19:32.433Z,3.42
2022-10-23T10:22:35.945Z,3.55
2022-10-23T10:25:18.523Z,3.00
2022-10-23T10:28:01.073Z,3.00
2022-10-23T10:30:47.642Z,3.70
2022-10-23T10:33:27.450Z,3.33
2022-10-23T10:36:31.474Z,3.70
2022-10-23T10:39:04.208Z,2.70
2022-10-23T10:41:55.590Z,2.55
2022-10-23T10:44:38.308Z,2.88
2022-10-23T10:47:33.738Z,3.25
2022-10-23T10:50:01.112Z,2.53
2022-10-23T10:53:15.000Z,2.70
2022-10-23T10:55:42.733Z,2.22
2022-10-23T10:58:34.380Z,2.85
2022-10-23T11:01:06.601Z,2.83
2022-10-23T11:03:42.820Z,2.63
2022-10-23T11:06:16.251Z,2.83
2022-10-23T11:08:56.416Z,2.80
2022-10-23T11:11:31.086Z,3.03
2022-10-23T11:13:58.729Z,3.00
2022-10-23T11:16:30.907Z,2.80
2022-10-23T11:19:20.056Z,2.63
2022-10-23T11:22:18.243Z,2.63
2022-10-23T11:24:58.628Z,2.72
2022-10-23T11:27:44.339Z,2.80
2022-10-23T11:30:21.741Z,3.03
2022-10-23T11:33:28.193Z,2.70
2022-10-23T11:36:04.638Z,2.85
2022-10-23T11:38:35.571Z,2.60
2022-10-23T11:41:07.286Z,2.80
2022-10-23T11:43:58.420Z,2.85
2022-10-23T11:46:28.913Z,3.00
2022-10-23T11:48:57.424Z,2.95
2022-10-23T11:51:41.305Z,3.17
2022-10-23T11:54:28.828Z,3.05
2022-10-23T11:57:10.635Z,2.95
2022-10-23T11:59:55.718Z,3.20
2022-10-23T12:02:41.967Z,3.15
2022-10-23T12:05:40.625Z,2.72
2022-10-23T12:08:29.701Z,2.70
2022-10-23T12:10:57.402Z,2.88
2022-10-23T12:13:32.783Z,3.13
2022-10-23T12:16:01.720Z,3.17
2022-10-23T12:18:29.045Z,3.30
2022-10-23T12:21:02.012Z,3.53
2022-10-23T12:23:37.190Z,3.35
2022-10-23T12:26:07.526Z,3.30
2022-10-23T12:28:47.632Z,3.78
2022-10-23T12:31:52.120Z,3.70
2022-10-23T12:34:38.193Z,3.45
2022-10-23T12:37:41.176Z,3.70
2022-10-23T12:40:10.602Z,3.33
2022-10-23T12:42:39.941Z,3.15
2022-10-23T12:45:24.259Z,3.20
2022-10-23T12:47:52.967Z,3.15
2022-10-23T12:50:26.269Z,2.90
2022-10-23T12:53:01.191Z,3.15
2022-10-23T12:55:46.829Z,3.15
2022-10-23T12:58:32.195Z,3.00
2022-10-23T13:01:05.506Z,3.08
2022-10-23T13:03:35.523Z,3.42
2022-10-23T13:06:03.840Z,3.20
2022-10-23T13:08:48.242Z,3.10
2022-10-23T13:11:34.401Z,3.28
2022-10-23T13:14:13.247Z,3.05
2022-10-23T13:16:40.529Z,3.30
2022-10-23T13:19:22.690Z,3.10
2022-10-23T13:21:50.090Z,3.60
2022-10-23T13:24:22.081Z,3.28
2022-10-23T13:26:49.477Z,3.22
2022-10-23T13:29:34.002Z,3.28
2022-10-23T13:32:24.374Z,2.80
2022-10-23T13:35:03.954Z,3.05
2022-10-23T13:37:45.707Z,3.20
2022-10-23T13:40:28.076Z,2.90
2022-10-23T13:42:57.513Z,3.15
2022-10-23T13:45:26.979Z,2.88
2022-10-23T13:47:54.290Z,3.15
2022-10-23T13:50:22.015Z,3.10
2022-10-23T13:52:49.515Z,3.10
2022-10-23T13:55:24.359Z,3.10
2022-10-23T13:57:52.097Z,3.17
2022-10-23T14:00:20.575Z,3.40
2022-10-23T14:02:48.088Z,3.83
2022-10-23T14:05:15.617Z,3.80
2022-10-23T14:07:43.279Z,3.92
2022-10-23T14:10:10.707Z,3.70
2022-10-23T14:12:41.215Z,4.00
2022-10-23T14:15:10.287Z,3.65
2022-10-23T14:17:38.236Z,4.07
2022-10-23T14:20:06.592Z,4.03
2022-10-23T14:22:34.291Z,3.83
2022-10-23T14:25:02.021Z,4.50
2022-10-23T14:27:30.718Z,5.00
2022-10-23T14:30:00.501Z,4.40
2022-10-23T14:32:27.807Z,4.60
2022-10-23T14:34:55.451Z,5.43
2022-10-23T14:37:22.892Z,5.30
2022-10-23T14:39:50.517Z,4.72
2022-10-23T14:42:18.207Z,4.85
2022-10-23T14:44:45.464Z,4.88
2022-10-23T14:47:12.686Z,5.60
2022-10-23T14:49:40.494Z,4.50
2022-10-23T14:52:08.270Z,4.70
2022-10-23T14:54:36.872Z,6.15
2022-10-23T14:57:04.581Z,5.55
2022-10-23T14:59:31.923Z,4.90
2022-10-23T15:01:59.186Z,4.88
2022-10-23T15:04:26.851Z,5.20
2022-10-23T15:06:54.507Z,4.22
2022-10-23T15:09:21.815Z,4.50
2022-10-23T15:11:49.478Z,4.57
2022-10-23T15:14:16.714Z,4.35
2022-10-23T15:16:44.054Z,3.63
2022-10-23T15:19:17.135Z,3.97
2022-10-23T15:21:47.382Z,4.20
2022-10-23T15:24:16.271Z,4.00
2022-10-23T15:26:44.211Z,4.03
2022-10-23T15:29:12.534Z,5.30
2022-10-23T15:31:43.589Z,5.47
2022-10-23T15:34:14.667Z,5.60
2022-10-23T15:36:42.948Z,5.35
2022-10-23T15:39:12.606Z,4.53
2022-10-23T15:41:41.900Z,4.95
2022-10-23T15:44:13.326Z,4.80
2022-10-23T15:46:40.892Z,5.03
2022-10-23T15:49:12.478Z,5.60
2022-10-23T15:51:41.130Z,5.82
2022-10-23T15:54:12.043Z,6.35
2022-10-23T15:56:39.672Z,5.60
2022-10-23T15:59:06.903Z,6.00
2022-10-23T16:01:34.502Z,4.78
2022-10-23T16:04:02.289Z,4.70
2022-10-23T16:06:30.115Z,4.63
2022-10-23T16:08:57.543Z,4.88
2022-10-23T16:11:30.542Z,4.07
2022-10-23T16:13:59.645Z,5.28
2022-10-23T16:16:30.302Z,5.47
2022-10-23T16:19:02.767Z,4.55
2022-10-23T16:21:36.289Z,5.13
2022-10-23T16:24:06.942Z,4.75
2022-10-23T16:26:35.328Z,4.65
2022-10-23T16:29:05.991Z,4.30
2022-10-23T16:31:34.102Z,4.07
2022-10-23T16:34:03.006Z,4.10
2022-10-23T16:36:31.632Z,3.80
2022-10-23T16:39:10.300Z,3.70
2022-10-23T16:41:56.463Z,4.07
2022-10-23T16:44:28.725Z,3.70
2022-10-23T16:46:58.243Z,3.70
2022-10-23T16:49:25.420Z,4.43
2022-10-23T16:51:52.577Z,3.55
2022-10-23T16:54:20.688Z,3.00
2022-10-23T16:56:48.713Z,2.75
2022-10-23T16:59:16.267Z,3.20
2022-10-23T17:01:44.020Z,2.88
2022-10-23T17:04:11.567Z,2.97
2022-10-23T17:06:38.931Z,3.83
2022-10-23T17:09:06.877Z,3.42
2022-10-23T17:11:39.965Z,3.85
2022-10-23T17:14:11.853Z,3.20
2022-10-23T17:16:47.372Z,2.95
2022-10-23T17:19:33.047Z,2.90
2022-10-23T17:22:08.351Z,3.17
2022-10-23T17:24:35.746Z,3.30
2022-10-23T17:27:04.549Z,3.78
2022-10-23T17:29:32.218Z,3.50
2022-10-23T17:31:59.405Z,3.40
2022-10-23T17:34:26.666Z,3.30
2022-10-23T17:36:55.381Z,3.55
2022-10-23T17:39:25.274Z,3.22
2022-10-23T17:41:53.317Z,3.03
2022-10-23T17:44:20.987Z,2.90
2022-10-23T17:46:54.031Z,3.00
2022-10-23T17:49:22.226Z,2.97
2022-10-23T17:51:54.532Z,2.80
2022-10-23T17:54:22.559Z,2.63
2022-10-23T17:56:51.959Z,2.60
2022-10-23T17:59:19.863Z,2.92
2022-10-23T18:01:48.563Z,2.90
2022-10-23T18:04:18.875Z,4.35
2022-10-23T18:06:51.013Z,3.28
2022-10-23T18:09:19.336Z,3.47
2022-10-23T18:11:48.399Z,4.18
2022-10-23T18:14:20.469Z,4.82
2022-10-23T18:16:48.382Z,3.63
2022-10-23T18:19:18.537Z,3.30
2022-10-23T18:21:48.299Z,4.20
2022-10-23T18:24:18.671Z,4.10
2022-10-23T18:26:48.082Z,3.92
2022-10-23T18:29:17.668Z,3.65
2022-10-23T18:31:45.344Z,3.63
2022-10-23T18:34:17.764Z,4.15
2022-10-23T18:36:48.275Z,4.40
2022-10-23T18:39:17.802Z,4.20
2022-10-23T18:41:46.052Z,4.65
2022-10-23T18:44:19.819Z,4.20
2022-10-23T18:46:48.735Z,3.65
2022-10-23T18:49:18.895Z,4.00
2022-10-23T18:51:47.009Z,3.92
2022-10-23T18:54:17.556Z,3.72
2022-10-23T18:56:44.960Z,3.78
2022-10-23T18:59:16.446Z,3.75
2022-10-23T19:01:44.396Z,3.40
2022-10-23T19:04:14.266Z,3.70
2022-10-23T19:06:43.494Z,4.10
2022-10-23T19:09:14.159Z,3.58
2022-10-23T19:11:42.632Z,3.55
2022-10-23T19:14:13.183Z,3.65
2022-10-23T19:16:54.147Z,4.63
2022-10-23T19:19:26.460Z,3.95
2022-10-23T19:21:54.758Z,4.75
2022-10-23T19:24:38.086Z,4.60
2022-10-23T19:27:06.160Z,4.32
2022-10-23T19:29:37.502Z,4.15
2022-10-23T19:32:05.049Z,4.88
2022-10-23T19:34:32.329Z,5.00
2022-10-23T19:37:00.112Z,4.78
2022-10-23T19:39:27.489Z,4.45
2022-10-23T19:41:55.010Z,4.72
2022-10-23T19:44:22.467Z,4.88
2022-10-23T19:46:51.113Z,4.32
2022-10-23T19:49:20.639Z,4.32
2022-10-23T19:51:51.286Z,3.78
2022-10-23T19:54:20.734Z,3.83
2022-10-23T19:56:48.738Z,4.75
2022-10-23T19:59:16.480Z,3.97
2022-10-23T20:01:47.801Z,5.97
2022-10-23T20:04:17.642Z,4.97
2022-10-23T20:06:45.950Z,4.60
2022-10-23T20:09:13.407Z,4.63
2022-10-23T20:11:41.167Z,4.60
2022-10-23T20:14:08.694Z,4.78
2022-10-23T20:16:38.501Z,4.72
2022-10-23T20:19:08.960Z,4.93
2022-10-23T20:21:37.703Z,5.03
2022-10-23T20:24:05.784Z,4.82
2022-10-23T20:26:33.619Z,4.97
2022-10-23T20:29:01.101Z,4.35
2022-10-23T20:31:28.577Z,4.30
2022-10-23T20:33:57.040Z,4.18
2022-10-23T20:36:27.516Z,3.75
2022-10-23T20:38:56.612Z,3.95
2022-10-23T20:41:27.154Z,4.68
2022-10-23T20:43:58.136Z,4.72
2022-10-23T20:46:26.923Z,4.47
2022-10-23T20:48:54.735Z,4.10
2022-10-23T20:51:23.742Z,3.63
2022-10-23T20:53:53.195Z,3.92
2022-10-23T20:56:24.201Z,3.90
2022-10-23T20:58:51.369Z,3.70
2022-10-23T21:01:19.118Z,4.28
2022-10-23T21:03:51.525Z,3.75
2022-10-23T21:06:19.872Z,3.70
2022-10-23T21:08:48.625Z,3.95
2022-10-23T21:11:17.317Z,3.70
2022-10-23T21:13:45.357Z,3.70
2022-10-23T21:16:16.781Z,3.67
2022-10-23T21:18:46.652Z,3.65
2022-10-23T21:21:17.591Z,3.72
2022-10-23T21:23:50.020Z,3.50
2022-10-23T21:26:21.297Z,3.90
2022-10-23T21:28:56.090Z,3.90
2022-10-23T21:31:38.685Z,3.53
2022-10-23T21:34:06.221Z,3.42
2022-10-23T21:36:48.242Z,3.60
2022-10-23T21:39:22.602Z,3.10
2022-10-23T21:41:49.944Z,3.38
2022-10-23T21:44:17.624Z,3.60
2022-10-23T21:46:46.469Z,3.00
2022-10-23T21:49:13.783Z,3.45
2022-10-23T21:51:41.165Z,3.50
2022-10-23T21:54:15.066Z,3.10
2022-10-23T21:56:48.114Z,3.50
2022-10-23T21:59:19.964Z,3.45
2022-10-23T22:01:48.908Z,3.88
2022-10-23T22:04:18.308Z,3.50
2022-10-23T22:06:47.627Z,3.20
2022-10-23T22:09:19.613Z,3.53
2022-10-23T22:11:49.878Z,3.35
2022-10-23T22:14:17.330Z,3.40
2022-10-23T22:16:45.727Z,3.28
2022-10-23T22:19:14.929Z,3.30
2022-10-23T22:21:42.646Z,3.28
2022-10-23T22:24:10.223Z,3.05
2022-10-23T22:26:40.903Z,3.03
2022-10-23T22:29:11.900Z,3.03
2022-10-23T22:31:43.019Z,3.00
2022-10-23T22:34:27.141Z,3.20
2022-10-23T22:37:03.185Z,3.13
2022-10-23T22:39:30.387Z,3.53
2022-10-23T22:41:57.672Z,3.08
2022-10-23T22:44:25.178Z,2.70
2022-10-23T22:46:53.598Z,2.90
2022-10-23T22:49:22.461Z,2.78
2022-10-23T22:51:49.712Z,2.47
2022-10-23T22:54:17.184Z,2.42
2022-10-23T22:56:44.390Z,2.60
2022-10-23T22:59:12.058Z,2.40
2022-10-23T23:01:43.069Z,2.30
2022-10-23T23:07:11.768Z,2.50
2022-10-23T23:09:44.033Z,2.50
2022-10-23T23:12:13.915Z,2.67
2022-10-23T23:14:42.056Z,2.63
2022-10-23T23:17:09.938Z,2.65
2022-10-23T23:19:38.109Z,2.72
2022-10-23T23:22:06.499Z,3.00
2022-10-23T23:24:34.585Z,2.72
2022-10-23T23:27:01.714Z,3.42
2022-10-23T23:29:29.898Z,3.70
2022-10-23T23:31:57.160Z,3.50
2022-10-23T23:34:24.959Z,3.92
2022-10-23T23:36:52.263Z,3.53
2022-10-23T23:39:19.718Z,3.72
2022-10-23T23:41:46.965Z,3.97
2022-10-23T23:44:15.130Z,4.00
2022-10-23T23:46:42.486Z,4.30
2022-10-23T23:49:13.281Z,4.30
2022-10-23T23:51:42.061Z,4.13
2022-10-23T23:54:10.447Z,4.30
2022-10-23T23:56:39.479Z,3.90
2022-10-23T23:59:07.021Z,4.03
